Data for 03/16/2010

Time Sea-Level Adjusted Pressure Absolute Pressure Temperature Relative Humidity Dew Point   
(mb) (inHg) (mb) (inHg) (C) (F) (%) (C) (F)
00:05 1029 30.39 858 25.34 3.7 38.7 39 -8.9 16
00:10 1029 30.39 858 25.34 3.7 38.7 40 -8.7 16.3
00:15 1029 30.39 858 25.34 3.7 38.7 41 -8.2 17.2
00:20 1029 30.39 858 25.34 3.7 38.7 40 -8.6 16.5
00:25 1029 30.39 858 25.34 3.8 38.8 42 -8 17.6
00:30 1029 30.39 858 25.34 3.4 38 44 -7.9 17.9
00:35 1029 30.39 858 25.34 3.8 38.9 38 -9.3 15.2
00:40 1029 30.39 858 25.34 3.8 38.9 46 -6.9 19.7
00:45 1029 30.39 858 25.34 2.4 36.3 51 -6.8 19.8
00:50 1029 30.39 858 25.34 2.4 36.3 46 -8.1 17.4
00:55 1029 30.39 858 25.34 3.4 38 43 -8 17.7
01:00 1029 30.39 858 25.34 2.9 37.3 44 -8.1 17.5
01:05 1029 30.39 858 25.34 2.7 36.9 46 -7.9 17.8
01:10 1029 30.39 858 25.34 2.6 36.7 46 -8 17.6
01:15 1029 30.39 858 25.34 2.4 36.3 47 -7.9 17.7
01:20 1029 30.39 858 25.34 2.1 35.8 47 -7.9 17.7
01:25 1029 30.39 858 25.34 2 35.6 48 -7.9 17.7
01:30 1029 30.39 858 25.34 2.3 36.1 45 -8.5 16.7
01:35 1029 30.39 858 25.34 2.6 36.7 45 -8.2 17.3
01:40 1029 30.39 858 25.34 2.6 36.7 44 -8.4 16.9
01:45 1029 30.39 858 25.34 2.8 37.1 44 -8.3 17.1
01:50 1029 30.39 858 25.34 2.8 37 44 -8.4 16.9
01:55 1029 30.39 858 25.34 2.7 36.9 45 -8 17.7
02:00 1029 30.39 858 25.34 2.5 36.5 47 -7.8 17.9
02:05 1029 30.39 858 25.34 2.5 36.4 45 -8.4 16.9
02:10 1029 30.39 858 25.34 2.8 37.1 43 -8.4 16.8
02:15 1029 30.39 858 25.34 2.8 37.1 44 -8.4 16.9
02:20 1029 30.39 858 25.34 2.7 36.9 46 -7.9 17.8
02:25 1029 30.39 858 25.34 2.3 36.2 46 -8 17.6
02:30 1029 30.39 858 25.34 2.1 35.8 48 -7.9 17.7
02:35 1029 30.39 858 25.34 2 35.6 47 -8.1 17.4
02:40 1029 30.39 858 25.34 2.2 36 46 -8.1 17.4
02:45 1029 30.39 858 25.34 2.4 36.3 46 -8.1 17.4
02:50 1029 30.39 858 25.34 2.6 36.7 45 -8.2 17.3
02:55 1029 30.39 858 25.34 2.6 36.8 46 -7.8 17.9
03:00 1029 30.39 858 25.34 2.2 36 48 -7.8 18
03:05 1029 30.39 858 25.34 1.7 35 48 -8.2 17.3
03:10 1029 30.39 858 25.34 1.7 35 48 -8.3 17.1
03:15 1029 30.39 858 25.34 2.4 36.4 44 -8.7 16.3
03:20 1029 30.39 858 25.34 2.9 37.2 45 -8 17.6
03:25 1029 30.39 858 25.34 2.3 36.2 47 -7.9 17.8
03:30 1029 30.39 858 25.34 2.2 36 46 -8.2 17.2
03:35 1029 30.39 858 25.34 2.5 36.5 44 -8.5 16.7
03:40 1029 30.39 858 25.34 2.5 36.6 45 -8.1 17.4
03:45 1028 30.36 858 25.34 2.1 35.8 47 -8 17.5
03:50 1028 30.36 858 25.34 1.8 35.2 48 -8.2 17.2
03:55 1028 30.36 858 25.34 1.8 35.2 47 -8.4 16.9
04:00 1028 30.36 858 25.34 2.1 35.8 46 -8.3 17
04:05 1028 30.36 858 25.34 2.1 35.9 46 -8.4 17
04:10 1028 30.36 858 25.34 2 35.6 47 -8.2 17.2
04:15 1028 30.36 858 25.34 1.8 35.3 48 -8 17.6
04:20 1028 30.36 858 25.34 1.2 34.2 51 -7.9 17.8
04:25 1028 30.36 857 25.31 0.9 33.6 51 -8.1 17.4
04:30 1028 30.36 857 25.31 0.9 33.7 49 -8.7 16.4
04:35 1028 30.36 857 25.31 1.1 33.9 48 -8.8 16.2
04:40 1028 30.36 858 25.34 1.1 33.9 50 -8.3 17
04:45 1028 30.36 858 25.34 0.8 33.5 51 -8.2 17.3
04:50 1028 30.36 857 25.31 0.7 33.3 50 -8.4 16.8
04:55 1028 30.36 857 25.31 0.7 33.2 52 -8.2 17.2
05:00 1028 30.36 857 25.31 0.7 33.2 50 -8.5 16.6
05:05 1028 30.36 857 25.31 1.2 34.2 49 -8.3 17.1
05:10 1028 30.36 857 25.31 1.2 34.1 50 -8 17.6
05:15 1028 30.36 857 25.31 1 33.8 52 -7.9 17.8
05:20 1028 30.36 857 25.31 1 33.8 51 -8.1 17.3
05:25 1028 30.36 857 25.31 1.3 34.3 50 -8 17.7
05:30 1028 30.36 857 25.31 1 33.8 51 -7.9 17.8
05:35 1028 30.36 857 25.31 0.8 33.4 52 -8.1 17.5
05:40 1028 30.36 857 25.31 0.9 33.6 51 -8.1 17.4
05:45 1028 30.36 857 25.31 0.9 33.7 51 -8 17.6
05:50 1028 30.36 857 25.31 1.1 33.9 51 -8 17.6
05:55 1028 30.36 857 25.31 1 33.7 51 -8 17.6
06:00 1028 30.36 857 25.31 1.1 34 51 -7.9 17.7
06:05 1028 30.36 857 25.31 1.4 34.4 49 -8.1 17.4
06:10 1028 30.36 857 25.31 1.5 34.7 48 -8.3 17
06:15 1028 30.36 857 25.31 1.8 35.2 47 -8.5 16.8
06:20 1028 30.36 857 25.31 1.9 35.4 47 -8.3 17
06:25 1028 30.36 857 25.31 1.9 35.5 46 -8.6 16.5
06:30 1028 30.36 857 25.31 2.1 35.8 44 -8.9 15.9
06:35 1028 30.36 857 25.31 2.2 35.9 44 -9 15.8
06:40 1028 30.36 857 25.31 2 35.6 45 -8.6 16.5
06:45 1028 30.36 857 25.31 1.7 35.1 45 -9.1 15.6
06:50 1028 30.36 857 25.31 1.6 34.9 45 -9.2 15.4
06:55 1028 30.36 857 25.31 1.8 35.2 45 -9 15.8
07:00 1028 30.36 857 25.31 1.6 34.8 47 -8.5 16.7
07:05 1028 30.36 857 25.31 1.3 34.3 47 -8.9 16
07:10 1028 30.36 857 25.31 1 33.8 50 -8.4 16.9
07:15 1028 30.36 857 25.31 0.9 33.6 49 -8.6 16.4
07:20 1028 30.36 857 25.31 1 33.8 50 -8.3 17.1
07:25 1028 30.36 857 25.31 0.3 32.6 52 -8.3 17.1
07:30 1028 30.36 857 25.31 -0.4 31.3 54 -8.6 16.5
07:35 1028 30.36 857 25.31 -0.3 31.4 50 -9.5 14.9
07:40 1028 30.36 857 25.31 -0.1 31.9 52 -8.8 16.2
07:45 1028 30.36 857 25.31 -0.3 31.5 52 -9 15.7
07:50 1028 30.36 857 25.31 -0.1 31.8 52 -8.9 16.1
07:55 1028 30.36 857 25.31 -0.4 31.3 52 -9.1 15.6
08:00 1028 30.36 857 25.31 -0.4 31.4 52 -9.1 15.6
08:05 1028 30.36 857 25.31 -0.4 31.3 53 -8.9 15.9
08:10 1028 30.36 857 25.31 -0.7 30.8 55 -8.7 16.3
08:15 1028 30.36 857 25.31 -0.8 30.5 55 -8.8 16.1
08:20 1028 30.36 857 25.31 -0.9 30.4 56 -8.6 16.6
08:25 1028 30.36 857 25.31 -1 30.2 55 -8.9 16
08:30 1028 30.36 857 25.31 -0.6 31 53 -9 15.9
08:35 1028 30.36 857 25.31 -0.5 31.2 53 -8.8 16.2
08:40 1028 30.36 857 25.31 -0.4 31.3 53 -8.8 16.2
08:45 1028 30.36 857 25.31 -0.1 31.7 51 -9.1 15.7
08:50 1028 30.36 857 25.31 0.3 32.5 50 -9.1 15.7
08:55 1028 30.36 857 25.31 1.1 33.9 46 -9.4 15.1
09:00 1028 30.36 857 25.31 2 35.6 44 -9.1 15.6
09:05 1028 30.36 857 25.31 2.3 36.1 44 -8.9 16
09:10 1028 30.36 857 25.31 2.4 36.3 41 -9.6 14.8
09:15 1028 30.36 857 25.31 2.8 37 43 -8.7 16.4
09:20 1028 30.36 857 25.31 2.9 37.2 40 -9.3 15.2
09:25 1028 30.36 857 25.31 2.8 37 42 -9 15.7
09:30 1028 30.36 857 25.31 2.8 37.1 40 -9.4 15.1
09:35 1028 30.36 857 25.31 3 37.4 41 -8.9 16
09:40 1028 30.36 857 25.31 3.3 38 40 -8.9 16
09:45 1028 30.36 857 25.31 3.7 38.7 40 -8.7 16.4
09:50 1028 30.36 857 25.31 4.6 40.2 36 -9.3 15.2
09:55 1028 30.36 857 25.31 5.1 41.1 36 -8.8 16.1
10:00 1028 30.36 857 25.31 5.4 41.8 35 -9 15.9
10:05 1028 30.36 857 25.31 5.7 42.3 34 -9.1 15.6
10:10 1028 30.36 857 25.31 5.7 42.2 35 -8.5 16.7
10:15 1028 30.36 857 25.31 5.4 41.7 36 -8.4 16.9
10:20 1028 30.36 857 25.31 5.1 41.2 35 -9.3 15.3
10:25 1028 30.36 857 25.31 5 41 34 -9.6 14.8
10:30 1028 30.36 857 25.31 5.6 42.2 33 -9.4 15.1
10:35 1027 30.33 857 25.31 5.9 42.6 34 -8.8 16.2
10:40 1028 30.36 857 25.31 7.1 44.7 31 -8.8 16.2
10:45 1028 30.36 857 25.31 7.4 45.3 32 -8.3 17.1
10:50 1028 30.36 857 25.31 6.9 44.4 34 -8.1 17.4
10:55 1027 30.33 857 25.31 7.4 45.2 32 -8.1 17.4
11:00 1027 30.33 857 25.31 6.8 44.2 33 -8.3 17
11:05 1027 30.33 857 25.31 7.1 44.7 32 -8.5 16.7
11:10 1027 30.33 857 25.31 8.5 47.3 29 -8.5 16.8
11:15 1027 30.33 857 25.31 9.7 49.5 31 -6.8 19.8
11:20 1027 30.33 857 25.31 8.7 47.6 33 -6.8 19.7
11:25 1027 30.33 857 25.31 7.9 46.2 33 -7.3 18.9
11:30 1027 30.33 856 25.28 8.2 46.8 34 -6.6 20.1
11:35 1027 30.33 856 25.28 7.4 45.2 34 -7.7 18.2
11:40 1027 30.33 856 25.28 8 46.3 33 -7.5 18.6
11:45 1027 30.33 856 25.28 7.8 46 32 -7.8 17.9
11:50 1027 30.33 856 25.28 8.4 47.1 31 -7.6 18.3
11:55 1027 30.33 856 25.28 8.4 47.2 31 -7.9 17.7
12:00 1027 30.33 856 25.28 8.7 47.7 31 -7.4 18.6
12:05 1027 30.33 856 25.28 9.2 48.5 28 -8.3 17
12:10 1027 30.33 856 25.28 8.9 47.9 29 -8.1 17.5
12:15 1027 30.33 856 25.28 9.3 48.7 27 -8.6 16.5
12:20 1027 30.33 856 25.28 9.1 48.4 29 -8.1 17.4
12:25 1027 30.33 856 25.28 10.1 50.2 29 -7.2 19.1
12:30 1027 30.33 856 25.28 9.7 49.4 32 -6.1 21
12:35 1027 30.33 856 25.28 8.8 47.9 36 -5.4 22.3
12:40 1027 30.33 856 25.28 8.4 47 37 -5.7 21.8
12:45 1027 30.33 856 25.28 8.3 46.9 35 -6.1 20.9
12:50 1027 30.33 856 25.28 9.1 48.3 34 -6.1 21.1
12:55 1027 30.33 856 25.28 9.6 49.2 31 -6.6 20.2
13:00 1027 30.33 856 25.28 10.4 50.7 31 -6.1 21.1
13:05 1027 30.33 856 25.28 9.5 49.2 31 -6.7 19.9
13:10 1027 30.33 856 25.28 10 50 30 -7 19.4
13:15 1026 30.3 856 25.28 10.3 50.6 30 -6.5 20.4
13:20 1026 30.3 856 25.28 8.9 48 33 -6.4 20.5
13:25 1026 30.3 856 25.28 9 48.2 33 -6.3 20.7
13:30 1026 30.3 856 25.28 9.6 49.4 32 -6.2 20.9
13:35 1026 30.3 856 25.28 9.7 49.5 31 -6.7 19.9
13:40 1026 30.3 856 25.28 10 50 31 -6.3 20.6
13:45 1026 30.3 856 25.28 10 49.9 31 -6.5 20.4
13:50 1026 30.3 855 25.25 10.8 51.4 29 -6.4 20.4
13:55 1026 30.3 855 25.25 11.7 53 27 -6.7 19.9
14:00 1026 30.3 855 25.25 12 53.7 28 -5.7 21.7
14:05 1026 30.3 855 25.25 12.1 53.8 28 -5.8 21.6
14:10 1026 30.3 855 25.25 11.5 52.6 27 -6.6 20.1
14:15 1026 30.3 855 25.25 11.4 52.5 29 -6.1 21
14:20 1026 30.3 855 25.25 11.7 53 28 -6.4 20.4
14:25 1026 30.3 855 25.25 11.9 53.4 27 -6.7 20
14:30 1026 30.3 855 25.25 12.3 54.2 26 -6.4 20.5
14:35 1026 30.3 855 25.25 12.8 55.1 26 -6.4 20.5
14:40 1026 30.3 855 25.25 11.9 53.3 29 -5.4 22.2
14:45 1026 30.3 855 25.25 10.8 51.4 29 -6.7 19.9
14:50 1026 30.3 855 25.25 11.8 53.2 28 -6.2 20.8
14:55 1025 30.27 855 25.25 11.7 53 29 -5.7 21.8
15:00 1025 30.27 855 25.25 11 51.8 30 -6 21.3
15:05 1025 30.27 854 25.22 11.1 52 30 -5.7 21.7
15:10 1025 30.27 854 25.22 10.6 51.2 30 -6.2 20.9
15:15 1025 30.27 854 25.22 11.5 52.7 29 -5.8 21.5
15:20 1025 30.27 854 25.22 11.9 53.5 28 -5.9 21.3
15:25 1025 30.27 854 25.22 11.5 52.6 30 -5.5 22.2
15:30 1025 30.27 854 25.22 11.1 52 30 -5.9 21.4
15:35 1025 30.27 854 25.22 11.1 51.9 29 -6.2 20.8
15:40 1025 30.27 854 25.22 10.6 51.1 31 -6 21.3
15:45 1025 30.27 854 25.22 10.6 51 30 -6.5 20.4
15:50 1025 30.27 854 25.22 10.8 51.5 29 -6.6 20.2
15:55 1025 30.27 854 25.22 11.1 52 28 -6.5 20.3
16:00 1025 30.27 854 25.22 11.5 52.7 28 -6.5 20.2
16:05 1025 30.27 854 25.22 12.1 53.7 27 -6.5 20.3
16:10 1025 30.27 854 25.22 12.4 54.2 26 -6.3 20.6
16:15 1025 30.27 854 25.22 11.9 53.3 28 -6.1 21.1
16:20 1025 30.27 854 25.22 11.5 52.7 30 -5.6 21.9
16:25 1025 30.27 854 25.22 10.9 51.7 29 -6.3 20.7
16:30 1025 30.27 854 25.22 10.7 51.3 27 -7.5 18.5
16:35 1025 30.27 854 25.22 10.6 51.1 28 -7.1 19.1
16:40 1025 30.27 854 25.22 10.7 51.3 27 -7.7 18.2
16:45 1025 30.27 854 25.22 10.9 51.7 26 -7.6 18.3
16:50 1025 30.27 854 25.22 10.9 51.7 25 -8.3 17
16:55 1025 30.27 854 25.22 11.4 52.6 25 -8 17.7
17:00 1025 30.27 854 25.22 11.6 53 25 -7.8 17.9
17:05 1025 30.27 854 25.22 11.7 53.1 24 -8 17.7
17:10 1025 30.27 854 25.22 11.5 52.8 23 -8.6 16.5
17:15 1025 30.27 854 25.22 11.2 52.2 23 -9.3 15.2
17:20 1025 30.27 854 25.22 11.1 52 24 -8.8 16.2
17:25 1025 30.27 854 25.22 11.2 52.2 22 -9.6 14.7
17:30 1025 30.27 854 25.22 11.6 52.8 24 -8.5 16.6
17:35 1025 30.27 854 25.22 11.9 53.5 26 -7.2 19.1
17:40 1025 30.27 854 25.22 11.9 53.4 24 -7.9 17.7
17:45 1025 30.27 854 25.22 11.6 53 23 -8.9 16.1
17:50 1025 30.27 854 25.22 11.8 53.2 23 -8.4 16.9
17:55 1025 30.27 854 25.22 11.8 53.3 23 -8.5 16.7
18:00 1025 30.27 854 25.22 11.3 52.3 23 -8.9 16
18:05 1025 30.27 854 25.22 11.3 52.3 24 -8.3 17.1
18:10 1025 30.27 854 25.22 11.3 52.3 25 -8 17.5
18:15 1025 30.27 854 25.22 11.2 52.2 24 -8.8 16.1
18:20 1025 30.27 854 25.22 11.1 51.9 24 -8.6 16.5
18:25 1025 30.27 854 25.22 11.1 52 25 -8.2 17.2
18:30 1024 30.24 854 25.22 11.2 52.2 25 -8.1 17.5
18:35 1024 30.24 854 25.22 11 51.8 27 -7.4 18.8
18:40 1025 30.27 854 25.22 11 51.7 27 -7.2 19
18:45 1025 30.27 854 25.22 11 51.9 28 -6.6 20.1
18:50 1025 30.27 854 25.22 11 51.7 28 -6.6 20.1
18:55 1025 30.27 854 25.22 10.6 51.2 29 -6.5 20.4
19:00 1025 30.27 854 25.22 10.5 50.9 29 -7 19.4
19:05 1025 30.27 854 25.22 10.3 50.5 27 -7.8 17.9
19:10 1025 30.27 854 25.22 10 49.9 29 -7 19.3
19:15 1025 30.27 854 25.22 9.8 49.6 30 -7.2 19.1
19:20 1025 30.27 854 25.22 9.8 49.6 30 -7 19.5
19:25 1025 30.27 854 25.22 9.2 48.5 32 -6.6 20.1
19:30 1025 30.27 854 25.22 8.8 47.9 31 -7.3 18.9
19:35 1025 30.27 854 25.22 8.8 47.8 30 -7.9 17.8
19:40 1025 30.27 854 25.22 9 48.3 30 -7.8 18
19:45 1025 30.27 854 25.22 9.1 48.3 29 -7.9 17.7
19:50 1025 30.27 854 25.22 9.1 48.4 34 -6 21.2
19:55 1025 30.27 854 25.22 8.6 47.5 37 -5.4 22.2
20:00 1025 30.27 854 25.22 8.4 47 35 -6.4 20.5
20:05 1025 30.27 854 25.22 8.4 47.1 37 -5.4 22.2
20:10 1025 30.27 854 25.22 7.8 46 37 -5.9 21.3
20:15 1025 30.27 854 25.22 7.5 45.5 37 -6.2 20.8
20:20 1025 30.27 854 25.22 7.2 45 37 -6.4 20.4
20:25 1025 30.27 854 25.22 7.7 45.8 32 -8.2 17.3
20:30 1025 30.27 854 25.22 7.9 46.2 35 -6.7 19.9
20:35 1025 30.27 854 25.22 7.2 44.9 35 -7.2 19.1
20:40 1025 30.27 854 25.22 7.5 45.4 35 -7.1 19.3
20:45 1025 30.27 854 25.22 7.5 45.5 37 -6.3 20.6
20:50 1025 30.27 854 25.22 7.5 45.4 37 -6.2 20.8
20:55 1025 30.27 854 25.22 7.4 45.3 36 -6.8 19.8
21:00 1025 30.27 854 25.22 7.4 45.3 33 -7.7 18.1
21:05 1025 30.27 854 25.22 7.5 45.4 37 -6.4 20.5
21:10 1025 30.27 854 25.22 6.9 44.4 38 -6.5 20.3
21:15 1025 30.27 854 25.22 6.8 44.2 40 -6 21.2
21:20 1025 30.27 854 25.22 6.6 43.9 37 -7 19.4
21:25 1025 30.27 854 25.22 6.9 44.5 38 -6.5 20.3
21:30 1025 30.27 854 25.22 6.7 44.1 40 -6 21.2
21:35 1025 30.27 854 25.22 6.6 43.8 40 -6.1 21
21:40 1025 30.27 854 25.22 6.4 43.6 40 -6.2 20.9
21:45 1025 30.27 854 25.22 6.3 43.3 41 -6.1 21
21:50 1025 30.27 854 25.22 6.1 43 42 -5.9 21.3
21:55 1025 30.27 854 25.22 6.1 43.1 40 -6.4 20.6
22:00 1025 30.27 854 25.22 6.4 43.5 41 -5.9 21.3
22:05 1025 30.27 854 25.22 6.3 43.3 41 -5.9 21.3
22:10 1025 30.27 854 25.22 5.9 42.5 42 -6 21.2
22:15 1025 30.27 854 25.22 5.5 41.9 45 -5.4 22.3
22:20 1025 30.27 854 25.22 5 41.1 46 -5.5 22
22:25 1025 30.27 854 25.22 5 40.9 45 -5.9 21.4
22:30 1025 30.27 854 25.22 5.3 41.6 43 -6.3 20.7
22:35 1025 30.27 854 25.22 5.6 42.1 40 -7 19.4
22:40 1025 30.27 854 25.22 6.3 43.4 38 -6.9 19.7
22:45 1025 30.27 854 25.22 6.6 43.8 37 -7.2 19
22:50 1025 30.27 854 25.22 6.8 44.2 36 -7.3 18.8
22:55 1025 30.27 854 25.22 6.8 44.3 36 -7.2 19
23:00 1025 30.27 854 25.22 6.7 44 36 -7.5 18.5
23:05 1025 30.27 854 25.22 6.7 44.1 35 -7.5 18.4
23:10 1025 30.27 854 25.22 6.7 44 34 -8.1 17.3
23:15 1025 30.27 854 25.22 6.8 44.2 35 -7.8 18
23:20 1025 30.27 854 25.22 6.7 44 34 -8 17.5
23:25 1025 30.27 854 25.22 6.7 44.1 34 -8.3 17.1
23:30 1025 30.27 854 25.22 6.9 44.4 33 -8.5 16.8
23:35 1025 30.27 854 25.22 7.1 44.7 33 -8.2 17.3
23:40 1025 30.27 854 25.22 6.8 44.2 34 -8 17.7
23:45 1025 30.27 854 25.22 6.4 43.5 37 -7.4 18.7
23:50 1025 30.27 854 25.22 6.1 43 36 -7.7 18.1
23:55 1025 30.27 854 25.22 5.9 42.6 38 -7.4 18.7
24:00 1025 30.27 854 25.22 5.6 42.1 38 -7.7 18.1